createdAt,value
2023-02-11T00:01:14.758Z,-2.10
2023-02-11T00:03:41.766Z,-2.10
2023-02-11T00:06:11.150Z,-2.20
2023-02-11T00:08:38.894Z,-2.20
2023-02-11T00:11:05.889Z,-2.10
2023-02-11T00:13:32.683Z,-2.10
2023-02-11T00:15:59.520Z,-2.20
2023-02-11T00:18:26.341Z,-2.20
2023-02-11T00:20:53.182Z,-2.20
2023-02-11T00:23:19.999Z,-2.20
2023-02-11T00:25:46.963Z,-2.20
2023-02-11T00:28:13.988Z,-2.20
2023-02-11T00:30:41.236Z,-2.30
2023-02-11T00:33:08.759Z,-2.20
2023-02-11T00:35:38.678Z,-2.30
2023-02-11T00:38:07.826Z,-2.30
2023-02-11T00:40:34.733Z,-2.30
2023-02-11T00:43:02.982Z,-2.30
2023-02-11T00:45:30.729Z,-2.30
2023-02-11T00:47:57.931Z,-2.30
2023-02-11T00:50:24.824Z,-2.40
2023-02-11T00:52:51.632Z,-2.30
2023-02-11T00:55:18.563Z,-2.30
2023-02-11T00:57:45.422Z,-2.30
2023-02-11T01:00:13.926Z,-2.30
2023-02-11T01:02:40.921Z,-2.30
2023-02-11T01:05:08.030Z,-2.40
2023-02-11T01:07:34.816Z,-2.40
2023-02-11T01:10:01.656Z,-2.40
2023-02-11T01:12:30.024Z,-2.40
2023-02-11T01:14:58.435Z,-2.40
2023-02-11T01:17:25.322Z,-2.40
2023-02-11T01:19:52.123Z,-2.40
2023-02-11T01:22:18.976Z,-2.40
2023-02-11T01:24:47.503Z,-2.50
2023-02-11T01:27:14.467Z,-2.50
2023-02-11T01:29:41.280Z,-2.50
2023-02-11T01:32:08.136Z,-2.50
2023-02-11T01:34:35.249Z,-2.50
2023-02-11T01:37:02.194Z,-2.50
2023-02-11T01:39:32.559Z,-2.50
2023-02-11T01:41:59.362Z,-2.50
2023-02-11T01:44:33.619Z,-2.50
2023-02-11T01:47:01.756Z,-2.50
2023-02-11T01:49:31.885Z,-2.50
2023-02-11T01:52:14.486Z,-2.60
2023-02-11T01:55:06.163Z,-2.50
2023-02-11T01:57:36.428Z,-2.50
2023-02-11T02:00:28.943Z,-2.60
2023-02-11T02:03:19.415Z,-2.60
2023-02-11T02:05:53.557Z,-2.50
2023-02-11T02:08:43.858Z,-2.60
2023-02-11T02:11:11.164Z,-2.60
2023-02-11T02:13:38.604Z,-2.60
2023-02-11T02:16:09.899Z,-2.50
2023-02-11T02:19:10.120Z,-2.50
2023-02-11T02:21:54.881Z,-2.50
2023-02-11T02:25:03.268Z,-2.50
2023-02-11T02:28:06.250Z,-2.50
2023-02-11T02:30:53.159Z,-2.50
2023-02-11T02:33:46.758Z,-2.60
2023-02-11T02:36:36.383Z,-2.50
2023-02-11T02:39:18.130Z,-2.60
2023-02-11T02:41:47.461Z,-2.50
2023-02-11T02:44:14.320Z,-2.50
2023-02-11T02:46:41.203Z,-2.50
2023-02-11T02:49:14.142Z,-2.50
2023-02-11T02:51:40.905Z,-2.50
2023-02-11T02:54:43.853Z,-2.50
2023-02-11T02:57:30.983Z,-2.50
2023-02-11T03:00:07.636Z,-2.50
2023-02-11T03:03:20.584Z,-2.50
2023-02-11T03:05:58.437Z,-2.50
2023-02-11T03:08:51.315Z,-2.50
2023-02-11T03:11:21.911Z,-2.50
2023-02-11T03:13:50.930Z,-2.50
2023-02-11T03:16:22.801Z,-2.50
2023-02-11T03:19:15.474Z,-2.50
2023-02-11T03:21:44.326Z,-2.50
2023-02-11T03:24:18.660Z,-2.50
2023-02-11T03:26:57.735Z,-2.50
2023-02-11T03:29:51.583Z,-2.50
2023-02-11T03:32:28.841Z,-2.50
2023-02-11T03:34:57.776Z,-2.50
2023-02-11T03:37:43.521Z,-2.50
2023-02-11T03:40:13.369Z,-2.50
2023-02-11T03:42:48.072Z,-2.50
2023-02-11T03:45:20.349Z,-2.50
2023-02-11T03:47:51.921Z,-2.40
2023-02-11T03:50:20.252Z,-2.40
2023-02-11T03:52:49.701Z,-2.40
2023-02-11T03:55:19.011Z,-2.40
2023-02-11T03:57:46.759Z,-2.50
2023-02-11T04:00:14.928Z,-2.50
2023-02-11T04:02:42.393Z,-2.50
2023-02-11T04:05:11.509Z,-2.50
2023-02-11T04:07:38.289Z,-2.50
2023-02-11T04:10:05.975Z,-2.40
2023-02-11T04:12:32.836Z,-2.40
2023-02-11T04:14:59.616Z,-2.40
2023-02-11T04:17:26.462Z,-2.40
2023-02-11T04:19:53.288Z,-2.50
2023-02-11T04:22:20.087Z,-2.40
2023-02-11T04:24:46.896Z,-2.40
2023-02-11T04:27:13.785Z,-2.30
2023-02-11T04:29:40.847Z,-2.30
2023-02-11T04:32:07.840Z,-2.20
2023-02-11T04:34:34.675Z,-2.20
2023-02-11T04:37:01.475Z,-2.10
2023-02-11T04:39:28.239Z,-2.10
2023-02-11T04:41:55.046Z,-2.00
2023-02-11T04:44:21.840Z,-1.90
2023-02-11T04:46:48.768Z,-1.90
2023-02-11T04:49:17.116Z,-1.90
2023-02-11T04:51:47.597Z,-1.80
2023-02-11T04:54:15.823Z,-1.80
2023-02-11T04:56:42.677Z,-1.80
2023-02-11T04:59:09.593Z,-1.70
2023-02-11T05:01:36.501Z,-1.70
2023-02-11T05:04:03.425Z,-1.70
2023-02-11T05:06:30.245Z,-1.60
2023-02-11T05:08:57.064Z,-1.60
2023-02-11T05:11:25.265Z,-1.50
2023-02-11T05:13:52.150Z,-1.50
2023-02-11T05:16:19.613Z,-1.50
2023-02-11T05:18:46.697Z,-1.40
2023-02-11T05:21:17.304Z,-1.40
2023-02-11T05:23:45.332Z,-1.40
2023-02-11T05:26:13.206Z,-1.40
2023-02-11T05:28:41.442Z,-1.30
2023-02-11T05:31:08.592Z,-1.30
2023-02-11T05:33:35.691Z,-1.30
2023-02-11T05:36:05.393Z,-1.20
2023-02-11T05:38:32.868Z,-1.20
2023-02-11T05:41:00.477Z,-1.20
2023-02-11T05:43:28.017Z,-1.20
2023-02-11T05:45:55.024Z,-1.20
2023-02-11T05:48:21.978Z,-1.10
2023-02-11T05:50:48.979Z,-1.10
2023-02-11T05:53:15.890Z,-1.10
2023-02-11T05:55:42.995Z,-1.10
2023-02-11T05:58:09.895Z,-1.00
2023-02-11T06:00:37.433Z,-1.00
2023-02-11T06:03:04.706Z,-1.00
2023-02-11T06:05:32.154Z,-0.90
2023-02-11T06:07:59.119Z,-0.90
2023-02-11T06:10:26.684Z,-0.90
2023-02-11T06:12:54.000Z,-0.80
2023-02-11T06:15:20.821Z,-0.80
2023-02-11T06:17:47.664Z,-0.70
2023-02-11T06:20:14.559Z,-0.70
2023-02-11T06:22:41.349Z,-0.70
2023-02-11T06:25:08.341Z,-0.60
2023-02-11T06:27:35.142Z,-0.60
2023-02-11T06:30:02.012Z,-0.60
2023-02-11T06:32:43.253Z,-0.60
2023-02-11T06:35:12.267Z,-0.60
2023-02-11T06:37:40.365Z,-0.50
2023-02-11T06:40:07.504Z,-0.50
2023-02-11T06:42:36.119Z,-0.40
2023-02-11T06:45:06.092Z,-0.50
2023-02-11T06:47:33.263Z,-0.50
2023-02-11T06:50:00.415Z,-0.40
2023-02-11T06:52:27.272Z,-0.40
2023-02-11T06:54:54.341Z,-0.40
2023-02-11T06:57:21.140Z,-0.40
2023-02-11T06:59:48.095Z,-0.40
2023-02-11T07:02:15.221Z,-0.40
2023-02-11T07:04:42.127Z,-0.30
2023-02-11T07:07:08.925Z,-0.30
2023-02-11T07:09:35.732Z,-0.30
2023-02-11T07:12:02.547Z,-0.30
2023-02-11T07:14:29.343Z,-0.30
2023-02-11T07:16:56.227Z,-0.20
2023-02-11T07:19:23.001Z,-0.20
2023-02-11T07:21:49.837Z,-0.20
2023-02-11T07:24:16.695Z,-0.20
2023-02-11T07:26:44.657Z,-0.10
2023-02-11T07:29:11.676Z,-0.10
2023-02-11T07:31:38.821Z,-0.10
2023-02-11T07:34:05.728Z,-0.10
2023-02-11T07:36:32.608Z,-0.10
2023-02-11T07:39:00.246Z,-0.10
2023-02-11T07:41:27.632Z,-0.10
2023-02-11T07:43:55.261Z,0.00
2023-02-11T07:46:27.670Z,0.00
2023-02-11T07:48:54.996Z,0.00
2023-02-11T07:51:24.741Z,0.00
2023-02-11T07:53:52.244Z,0.10
2023-02-11T07:56:20.529Z,0.10
2023-02-11T07:58:47.857Z,0.20
2023-02-11T08:01:19.873Z,0.20
2023-02-11T08:03:46.676Z,0.20
2023-02-11T08:06:16.042Z,0.30
2023-02-11T08:08:43.102Z,0.30
2023-02-11T08:11:12.887Z,0.30
2023-02-11T08:13:40.253Z,0.30
2023-02-11T08:16:08.115Z,0.40
2023-02-11T08:18:35.729Z,0.40
2023-02-11T08:21:07.446Z,0.40
2023-02-11T08:23:35.953Z,0.40
2023-02-11T08:26:05.026Z,0.50
2023-02-11T08:28:32.015Z,0.50
2023-02-11T08:31:04.470Z,0.60
2023-02-11T08:33:31.330Z,0.60
2023-02-11T08:35:58.344Z,0.70
2023-02-11T08:38:25.169Z,0.80
2023-02-11T08:40:52.176Z,0.90
2023-02-11T08:43:19.092Z,0.90
2023-02-11T08:45:45.973Z,1.00
2023-02-11T08:48:12.752Z,1.10
2023-02-11T08:50:40.235Z,1.10
2023-02-11T08:53:07.211Z,1.10
2023-02-11T08:55:34.220Z,1.20
2023-02-11T08:58:01.124Z,1.20
2023-02-11T09:00:28.159Z,1.20
2023-02-11T09:02:55.317Z,1.20
2023-02-11T09:05:22.800Z,1.30
2023-02-11T09:07:49.601Z,1.30
2023-02-11T09:10:16.527Z,1.30
2023-02-11T09:12:43.360Z,1.40
2023-02-11T09:15:10.212Z,1.40
2023-02-11T09:17:36.980Z,1.40
2023-02-11T09:20:04.074Z,1.40
2023-02-11T09:22:30.886Z,1.40
2023-02-11T09:24:57.715Z,1.40
2023-02-11T09:27:24.485Z,1.50
2023-02-11T09:29:51.263Z,1.60
2023-02-11T09:32:18.425Z,1.70
2023-02-11T09:34:45.241Z,1.70
2023-02-11T09:37:12.017Z,1.70
2023-02-11T09:39:38.804Z,1.80
2023-02-11T09:42:24.076Z,1.80
2023-02-11T09:44:52.197Z,1.80
2023-02-11T09:47:29.863Z,1.90
2023-02-11T09:50:06.765Z,1.90
2023-02-11T09:52:45.230Z,1.90
2023-02-11T09:55:18.028Z,2.00
2023-02-11T09:57:44.970Z,2.10
2023-02-11T10:00:21.388Z,2.20
2023-02-11T10:02:57.022Z,2.40
2023-02-11T10:05:49.148Z,2.50
2023-02-11T10:08:18.669Z,2.70
2023-02-11T10:11:08.304Z,2.70
2023-02-11T10:13:49.641Z,2.80
2023-02-11T10:16:50.798Z,2.90
2023-02-11T10:19:54.093Z,2.90
2023-02-11T10:22:40.447Z,3.00
2023-02-11T10:25:23.153Z,3.00
2023-02-11T10:27:50.948Z,3.00
2023-02-11T10:30:23.685Z,3.00
2023-02-11T10:33:23.689Z,3.00
2023-02-11T10:35:50.651Z,3.00
2023-02-11T10:38:17.500Z,3.10
2023-02-11T10:40:44.612Z,3.10
2023-02-11T10:43:17.717Z,3.10
2023-02-11T10:45:52.470Z,3.10
2023-02-11T10:48:38.325Z,3.10
2023-02-11T10:51:16.539Z,3.20
2023-02-11T10:53:44.303Z,3.20
2023-02-11T10:56:19.736Z,3.20
2023-02-11T10:58:59.051Z,3.30
2023-02-11T11:01:48.721Z,3.40
2023-02-11T11:04:37.094Z,3.50
2023-02-11T11:07:23.677Z,3.60
2023-02-11T11:09:55.478Z,3.60
2023-02-11T11:12:48.469Z,3.70
2023-02-11T11:15:22.846Z,3.80
2023-02-11T11:18:20.924Z,3.90
2023-02-11T11:21:05.843Z,4.00
2023-02-11T11:23:34.565Z,4.00
2023-02-11T11:26:04.078Z,4.00
2023-02-11T11:28:38.813Z,4.00
2023-02-11T11:31:13.479Z,4.00
2023-02-11T11:33:43.561Z,4.10
2023-02-11T11:36:13.781Z,4.10
2023-02-11T11:38:55.670Z,4.10
2023-02-11T11:41:31.034Z,4.10
2023-02-11T11:43:59.257Z,4.00
2023-02-11T11:46:38.257Z,4.10
2023-02-11T11:49:32.225Z,4.10
2023-02-11T11:52:32.522Z,4.30
2023-02-11T11:57:45.812Z,4.50
2023-02-11T12:00:17.663Z,4.60
2023-02-11T12:02:47.674Z,4.60
2023-02-11T12:05:53.098Z,4.60
2023-02-11T12:08:29.768Z,4.70
2023-02-11T12:11:28.361Z,4.70
2023-02-11T12:14:08.906Z,4.70
2023-02-11T12:17:01.578Z,4.70
2023-02-11T12:19:50.669Z,4.80
2023-02-11T12:22:20.567Z,4.90
2023-02-11T12:25:15.224Z,5.00
2023-02-11T12:28:07.366Z,5.20
2023-02-11T12:31:14.853Z,5.40
2023-02-11T12:34:12.079Z,5.60
2023-02-11T12:37:02.795Z,5.80
2023-02-11T12:39:34.914Z,5.80
2023-02-11T12:42:36.589Z,5.80
2023-02-11T12:45:03.361Z,5.90
2023-02-11T12:47:36.256Z,5.90
2023-02-11T12:50:16.904Z,6.00
2023-02-11T12:53:19.936Z,6.00
2023-02-11T12:55:51.163Z,6.00
2023-02-11T12:58:35.622Z,6.20
2023-02-11T13:01:34.230Z,6.30
2023-02-11T13:04:35.753Z,6.30
2023-02-11T13:07:09.735Z,6.40
2023-02-11T13:09:51.233Z,6.40
2023-02-11T13:12:37.257Z,6.50
2023-02-11T13:15:10.016Z,6.60
2023-02-11T13:17:44.927Z,6.70
2023-02-11T13:20:52.161Z,6.60
2023-02-11T13:23:54.183Z,6.50
2023-02-11T13:26:51.680Z,6.40
2023-02-11T13:29:24.634Z,6.50
2023-02-11T13:32:10.950Z,6.60
2023-02-11T13:34:43.802Z,6.70
2023-02-11T13:37:21.456Z,6.70
2023-02-11T13:40:25.230Z,6.60
2023-02-11T13:42:59.393Z,6.70
2023-02-11T13:45:35.189Z,6.80
2023-02-11T13:48:06.164Z,6.90
2023-02-11T13:50:46.628Z,7.00
2023-02-11T13:53:16.044Z,7.00
2023-02-11T13:55:46.727Z,7.10
2023-02-11T13:58:19.722Z,7.10
2023-02-11T14:00:51.807Z,7.20
2023-02-11T14:03:44.439Z,7.20
2023-02-11T14:06:33.148Z,7.20
2023-02-11T14:08:59.890Z,7.20
2023-02-11T14:11:47.153Z,7.20
2023-02-11T14:14:16.749Z,7.30
2023-02-11T14:16:58.985Z,7.30
2023-02-11T14:19:33.539Z,7.30
2023-02-11T14:22:26.060Z,7.40
2023-02-11T14:24:55.282Z,7.40
2023-02-11T14:27:44.343Z,7.40
2023-02-11T14:30:42.819Z,7.40
2023-02-11T14:33:27.757Z,7.40
2023-02-11T14:36:20.058Z,7.40
2023-02-11T14:39:11.493Z,7.40
2023-02-11T14:41:44.140Z,7.40
2023-02-11T14:44:27.819Z,7.30
2023-02-11T14:46:55.423Z,7.30
2023-02-11T14:49:27.796Z,7.30
2023-02-11T14:51:59.541Z,7.30
2023-02-11T14:54:28.667Z,7.30
2023-02-11T14:57:16.459Z,7.30
2023-02-11T15:00:02.301Z,7.30
2023-02-11T15:02:38.349Z,7.20
2023-02-11T15:05:16.167Z,7.30
2023-02-11T15:07:59.190Z,7.30
2023-02-11T15:10:41.809Z,7.20
2023-02-11T15:13:16.085Z,7.20
2023-02-11T15:15:46.424Z,7.20
2023-02-11T15:18:22.728Z,7.10
2023-02-11T15:20:51.378Z,7.10
2023-02-11T15:23:24.833Z,7.00
2023-02-11T15:25:52.981Z,6.90
2023-02-11T15:28:24.652Z,6.90
2023-02-11T15:31:12.760Z,6.90
2023-02-11T15:33:39.592Z,6.90
2023-02-11T15:36:06.965Z,6.90
2023-02-11T15:38:33.721Z,7.00
2023-02-11T15:41:02.806Z,7.00
2023-02-11T15:43:53.202Z,7.00
2023-02-11T15:46:22.203Z,6.90
2023-02-11T15:48:52.014Z,6.90
2023-02-11T15:51:28.699Z,6.80
2023-02-11T15:54:01.986Z,6.80
2023-02-11T15:56:43.200Z,6.80
2023-02-11T15:59:30.619Z,6.80
2023-02-11T16:02:05.509Z,6.80
2023-02-11T16:04:32.654Z,6.80
2023-02-11T16:06:59.527Z,6.70
2023-02-11T16:09:36.463Z,6.60
2023-02-11T16:12:24.456Z,6.60
2023-02-11T16:14:51.235Z,6.50
2023-02-11T16:17:29.642Z,6.40
2023-02-11T16:19:56.505Z,6.30
2023-02-11T16:22:27.493Z,6.30
2023-02-11T16:24:57.883Z,6.20
2023-02-11T16:27:31.349Z,6.20
2023-02-11T16:29:58.852Z,6.10
2023-02-11T16:32:28.141Z,6.10
2023-02-11T16:34:58.025Z,6.10
2023-02-11T16:37:25.621Z,6.00
2023-02-11T16:39:56.625Z,6.00
2023-02-11T16:42:23.519Z,5.90
2023-02-11T16:44:50.379Z,5.90
2023-02-11T16:47:25.030Z,5.80
2023-02-11T16:49:52.343Z,5.70
2023-02-11T16:52:21.809Z,5.70
2023-02-11T16:54:48.694Z,5.70
2023-02-11T16:57:20.731Z,5.70
2023-02-11T16:59:47.880Z,5.60
2023-02-11T17:02:25.291Z,5.60
2023-02-11T17:04:57.952Z,5.60
2023-02-11T17:07:24.922Z,5.50
2023-02-11T17:09:52.316Z,5.50
2023-02-11T17:12:19.910Z,5.50
2023-02-11T17:14:46.721Z,5.40
2023-02-11T17:17:14.032Z,5.40
2023-02-11T17:19:40.751Z,5.40
2023-02-11T17:22:07.680Z,5.40
2023-02-11T17:24:34.691Z,5.40
2023-02-11T17:27:01.703Z,5.30
2023-02-11T17:29:28.475Z,5.30
2023-02-11T17:31:55.481Z,5.30
2023-02-11T17:34:22.784Z,5.30
2023-02-11T17:36:49.771Z,5.30
2023-02-11T17:39:16.741Z,5.30
2023-02-11T17:41:44.078Z,5.30
2023-02-11T17:44:12.528Z,5.30
2023-02-11T17:46:39.603Z,5.30
2023-02-11T17:49:06.592Z,5.30
2023-02-11T17:51:36.031Z,5.30
2023-02-11T17:54:05.097Z,5.30
2023-02-11T17:56:33.671Z,5.20
2023-02-11T17:59:02.450Z,5.10
2023-02-11T18:01:31.570Z,5.10
2023-02-11T18:03:58.430Z,5.00
2023-02-11T18:06:25.384Z,5.00
2023-02-11T18:08:52.569Z,4.90
2023-02-11T18:11:19.565Z,4.90
2023-02-11T18:13:51.398Z,4.90
2023-02-11T18:16:18.199Z,4.90
2023-02-11T18:18:45.036Z,4.90
2023-02-11T18:21:17.527Z,4.80
2023-02-11T18:23:44.936Z,4.90
2023-02-11T18:26:12.976Z,4.90
2023-02-11T18:28:40.417Z,4.90
2023-02-11T18:31:09.119Z,4.90
2023-02-11T18:33:37.501Z,4.80
2023-02-11T18:36:09.584Z,4.80
2023-02-11T18:38:36.947Z,4.70
2023-02-11T18:41:04.330Z,4.70
2023-02-11T18:43:33.554Z,4.70
2023-02-11T18:46:02.284Z,4.70
2023-02-11T18:48:29.382Z,4.70
2023-02-11T18:50:56.506Z,4.70
2023-02-11T18:53:24.989Z,4.70
2023-02-11T18:55:53.057Z,4.70
2023-02-11T18:58:21.330Z,4.70
2023-02-11T19:00:50.649Z,4.70
2023-02-11T19:03:17.751Z,4.70
2023-02-11T19:05:46.956Z,4.70
2023-02-11T19:08:14.062Z,4.70
2023-02-11T19:10:47.204Z,4.70
2023-02-11T19:13:14.531Z,4.70
2023-02-11T19:15:43.390Z,4.70
2023-02-11T19:18:10.908Z,4.70
2023-02-11T19:20:42.782Z,4.70
2023-02-11T19:23:10.539Z,4.60
2023-02-11T19:25:38.165Z,4.60
2023-02-11T19:28:05.104Z,4.70
2023-02-11T19:30:32.046Z,4.60
2023-02-11T19:32:58.886Z,4.60
2023-02-11T19:35:25.865Z,4.50
2023-02-11T19:37:52.843Z,4.50
2023-02-11T19:40:21.275Z,4.50
2023-02-11T19:42:48.301Z,4.50
2023-02-11T19:45:15.216Z,4.40
2023-02-11T19:47:42.061Z,4.40
2023-02-11T19:50:09.254Z,4.40
2023-02-11T19:52:40.531Z,4.40
2023-02-11T19:55:08.652Z,4.30
2023-02-11T19:57:36.574Z,4.30
2023-02-11T20:00:04.383Z,4.30
2023-02-11T20:02:39.970Z,4.20
2023-02-11T20:05:07.754Z,4.20
2023-02-11T20:07:34.942Z,4.20
2023-02-11T20:10:01.915Z,4.20
2023-02-11T20:12:28.742Z,4.20
2023-02-11T20:14:55.521Z,4.20
2023-02-11T20:17:22.308Z,4.10
2023-02-11T20:19:49.096Z,4.10
2023-02-11T20:22:15.891Z,4.10
2023-02-11T20:24:42.722Z,4.10
2023-02-11T20:27:11.499Z,4.10
2023-02-11T20:29:39.410Z,4.10
2023-02-11T20:32:08.140Z,4.10
2023-02-11T20:34:35.099Z,4.10
2023-02-11T20:37:04.175Z,4.00
2023-02-11T20:39:30.952Z,4.00
2023-02-11T20:41:58.266Z,4.00
2023-02-11T20:44:25.286Z,4.00
2023-02-11T20:46:54.090Z,3.90
2023-02-11T20:49:23.632Z,3.90
2023-02-11T20:51:52.488Z,3.90
2023-02-11T20:54:21.017Z,3.80
2023-02-11T20:56:48.552Z,3.80
2023-02-11T20:59:16.666Z,3.80
2023-02-11T21:01:46.966Z,3.80
2023-02-11T21:04:17.087Z,3.80
2023-02-11T21:06:47.245Z,3.80
2023-02-11T21:09:20.395Z,3.80
2023-02-11T21:11:48.067Z,3.80
2023-02-11T21:14:15.664Z,3.70
2023-02-11T21:16:42.596Z,3.70
2023-02-11T21:19:09.524Z,3.80
2023-02-11T21:21:38.253Z,3.80
2023-02-11T21:24:06.296Z,3.80
2023-02-11T21:26:35.409Z,3.80
2023-02-11T21:29:03.655Z,3.90
2023-02-11T21:31:32.884Z,3.90
2023-02-11T21:33:59.778Z,3.90
2023-02-11T21:36:28.184Z,3.80
2023-02-11T21:38:55.248Z,3.80
2023-02-11T21:41:22.658Z,3.80
2023-02-11T21:43:50.328Z,3.80
2023-02-11T21:46:18.034Z,3.80
2023-02-11T21:48:44.975Z,3.70
2023-02-11T21:51:15.536Z,3.70
2023-02-11T21:53:42.384Z,3.70
2023-02-11T21:56:11.789Z,3.70
2023-02-11T21:58:39.079Z,3.70
2023-02-11T22:01:14.825Z,3.70
2023-02-11T22:03:42.032Z,3.70
2023-02-11T22:06:11.147Z,3.70
2023-02-11T22:08:38.482Z,3.70
2023-02-11T22:11:06.602Z,3.70
2023-02-11T22:13:33.985Z,3.70
2023-02-11T22:16:02.652Z,3.60
2023-02-11T22:18:30.531Z,3.60
2023-02-11T22:21:02.371Z,3.60
2023-02-11T22:23:29.958Z,3.60
2023-02-11T22:25:58.513Z,3.60
2023-02-11T22:28:26.132Z,3.60
2023-02-11T22:30:57.258Z,3.60
2023-02-11T22:33:25.736Z,3.60
2023-02-11T22:36:04.579Z,3.60
2023-02-11T22:38:32.538Z,3.60
2023-02-11T22:41:05.207Z,3.60
2023-02-11T22:43:32.508Z,3.60
2023-02-11T22:46:04.028Z,3.60
2023-02-11T22:48:31.267Z,3.60
2023-02-11T22:51:04.823Z,3.60
2023-02-11T22:53:31.827Z,3.60
2023-02-11T22:56:09.338Z,3.60
2023-02-11T22:58:36.433Z,3.60
2023-02-11T23:01:04.926Z,3.60
2023-02-11T23:03:33.216Z,3.60
2023-02-11T23:06:00.856Z,3.60
2023-02-11T23:08:29.011Z,3.60
2023-02-11T23:10:56.104Z,3.60
2023-02-11T23:13:23.090Z,3.60
2023-02-11T23:15:49.867Z,3.60
2023-02-11T23:18:16.717Z,3.60
2023-02-11T23:20:43.973Z,3.60
2023-02-11T23:23:10.822Z,3.60
2023-02-11T23:25:43.429Z,3.50
2023-02-11T23:28:11.885Z,3.60
2023-02-11T23:30:39.492Z,3.60
2023-02-11T23:33:06.481Z,3.50
2023-02-11T23:35:33.266Z,3.60
2023-02-11T23:38:00.076Z,3.60
2023-02-11T23:40:26.836Z,3.60
2023-02-11T23:42:53.790Z,3.60
2023-02-11T23:45:20.570Z,3.60
2023-02-11T23:47:47.696Z,3.60
2023-02-11T23:50:14.852Z,3.60
2023-02-11T23:52:41.922Z,3.50
2023-02-11T23:55:08.988Z,3.50
2023-02-11T23:57:36.074Z,3.60
